Centenary, Louisiana
Current Conditions -  °F | °C
As of 7:53 AM on Sunday 21 Dec 2014 (Local Time) from KDTN Reporting Station
Haze Haze  
Wind Chill: 32°   Ceiling: Unl
Heat Index: 36°   Visibility: 4mi
Dew Point: 34°   Wind: 5mph
Humidity: 93%   Direction: 30°NNE
Pressure: 30.16"   Gusts: NA
Location:  32.4835°N, 93.7335°W
Report Text: KDTN 211353Z 03004KT 4SM BR FEW043 02/01 A3016 RMK AO2 SLP213 T00220011
Loading
Personal Weather Stations






























Interactive Weather Map New forecast layout! Learn more

10-Day Weather Forecast

Advertisements
Track Severe Weather on mobile